sensor_id;sensor_type;location;lat;lon;timestamp;temperature;humidity
8214;DHT22;4148;47.974;7.824;2023-10-08T00:00:45;11.50;95.90
8214;DHT22;4148;47.974;7.824;2023-10-08T00:03:17;11.40;99.90
8214;DHT22;4148;47.974;7.824;2023-10-08T00:05:47;11.50;99.90
8214;DHT22;4148;47.974;7.824;2023-10-08T00:08:16;11.60;99.90
8214;DHT22;4148;47.974;7.824;2023-10-08T00:10:44;11.50;34.40
8214;DHT22;4148;47.974;7.824;2023-10-08T00:13:13;11.40;38.60
8214;DHT22;4148;47.974;7.824;2023-10-08T00:15:42;11.30;99.90
8214;DHT22;4148;47.974;7.824;2023-10-08T00:18:22;11.20;99.90
8214;DHT22;4148;47.974;7.824;2023-10-08T00:20:50;11.20;1.00
8214;DHT22;4148;47.974;7.824;2023-10-08T00:23:25;11.20;99.90
8214;DHT22;4148;47.974;7.824;2023-10-08T00:25:53;11.20;99.90
8214;DHT22;4148;47.974;7.824;2023-10-08T00:28:21;11.30;99.90
8214;DHT22;4148;47.974;7.824;2023-10-08T00:30:49;11.20;1.00
8214;DHT22;4148;47.974;7.824;2023-10-08T00:33:21;11.10;99.90
8214;DHT22;4148;47.974;7.824;2023-10-08T00:35:51;11.10;1.00
8214;DHT22;4148;47.974;7.824;2023-10-08T00:38:19;11.20;1.00
8214;DHT22;4148;47.974;7.824;2023-10-08T00:40:48;11.20;99.90
8214;DHT22;4148;47.974;7.824;2023-10-08T00:43:31;11.30;99.90
8214;DHT22;4148;47.974;7.824;2023-10-08T00:46:01;11.40;99.90
8214;DHT22;4148;47.974;7.824;2023-10-08T00:48:32;11.30;99.90
8214;DHT22;4148;47.974;7.824;2023-10-08T00:51:02;11.30;99.90
8214;DHT22;4148;47.974;7.824;2023-10-08T00:53:52;11.30;1.00
8214;DHT22;4148;47.974;7.824;2023-10-08T00:56:26;11.30;1.00
8214;DHT22;4148;47.974;7.824;2023-10-08T00:59:11;11.20;99.90
8214;DHT22;4148;47.974;7.824;2023-10-08T01:01:43;11.30;94.60
8214;DHT22;4148;47.974;7.824;2023-10-08T01:04:19;11.40;1.00
8214;DHT22;4148;47.974;7.824;2023-10-08T01:06:54;11.20;1.00
8214;DHT22;4148;47.974;7.824;2023-10-08T01:09:22;11.10;99.90
8214;DHT22;4148;47.974;7.824;2023-10-08T01:12:09;11.00;99.90
8214;DHT22;4148;47.974;7.824;2023-10-08T01:14:39;11.20;1.00
8214;DHT22;4148;47.974;7.824;2023-10-08T01:17:10;11.10;1.00
8214;DHT22;4148;47.974;7.824;2023-10-08T01:19:43;11.30;99.90
8214;DHT22;4148;47.974;7.824;2023-10-08T01:22:13;11.20;99.90
8214;DHT22;4148;47.974;7.824;2023-10-08T01:24:45;11.00;99.90
8214;DHT22;4148;47.974;7.824;2023-10-08T01:27:15;10.90;1.00
8214;DHT22;4148;47.974;7.824;2023-10-08T01:29:48;10.90;99.90
8214;DHT22;4148;47.974;7.824;2023-10-08T01:32:17;10.90;1.00
8214;DHT22;4148;47.974;7.824;2023-10-08T01:34:46;10.90;99.90
8214;DHT22;4148;47.974;7.824;2023-10-08T01:37:17;11.00;99.90
8214;DHT22;4148;47.974;7.824;2023-10-08T01:39:45;11.00;99.90
8214;DHT22;4148;47.974;7.824;2023-10-08T01:42:15;10.90;36.20
8214;DHT22;4148;47.974;7.824;2023-10-08T01:44:45;10.80;1.00
8214;DHT22;4148;47.974;7.824;2023-10-08T01:47:14;10.70;1.00
8214;DHT22;4148;47.974;7.824;2023-10-08T01:49:43;10.70;88.20
8214;DHT22;4148;47.974;7.824;2023-10-08T01:52:13;10.60;1.00
8214;DHT22;4148;47.974;7.824;2023-10-08T01:54:47;10.70;1.00
8214;DHT22;4148;47.974;7.824;2023-10-08T01:57:15;10.70;1.00
8214;DHT22;4148;47.974;7.824;2023-10-08T01:59:43;10.70;99.90
8214;DHT22;4148;47.974;7.824;2023-10-08T02:02:12;10.70;1.00
8214;DHT22;4148;47.974;7.824;2023-10-08T02:04:42;10.70;1.00
8214;DHT22;4148;47.974;7.824;2023-10-08T02:07:11;10.70;99.90
8214;DHT22;4148;47.974;7.824;2023-10-08T02:09:39;10.70;99.90
8214;DHT22;4148;47.974;7.824;2023-10-08T02:12:09;10.70;33.50
8214;DHT22;4148;47.974;7.824;2023-10-08T02:14:41;10.70;99.90
8214;DHT22;4148;47.974;7.824;2023-10-08T02:17:09;10.60;99.90
8214;DHT22;4148;47.974;7.824;2023-10-08T02:19:37;10.50;99.90
8214;DHT22;4148;47.974;7.824;2023-10-08T02:22:05;10.60;99.90
8214;DHT22;4148;47.974;7.824;2023-10-08T02:24:36;10.60;1.00
8214;DHT22;4148;47.974;7.824;2023-10-08T02:27:04;10.60;1.00
8214;DHT22;4148;47.974;7.824;2023-10-08T02:29:34;10.60;1.00
8214;DHT22;4148;47.974;7.824;2023-10-08T02:32:03;10.50;99.90
8214;DHT22;4148;47.974;7.824;2023-10-08T02:34:31;10.40;99.90
8214;DHT22;4148;47.974;7.824;2023-10-08T02:36:59;10.40;11.70
8214;DHT22;4148;47.974;7.824;2023-10-08T02:39:27;10.40;99.90
8214;DHT22;4148;47.974;7.824;2023-10-08T02:41:57;10.40;99.90
8214;DHT22;4148;47.974;7.824;2023-10-08T02:44:27;10.50;36.90
8214;DHT22;4148;47.974;7.824;2023-10-08T02:46:56;10.60;1.00
8214;DHT22;4148;47.974;7.824;2023-10-08T02:49:24;10.80;99.90
8214;DHT22;4148;47.974;7.824;2023-10-08T02:51:57;10.70;99.90
8214;DHT22;4148;47.974;7.824;2023-10-08T02:54:25;10.60;99.90
8214;DHT22;4148;47.974;7.824;2023-10-08T02:56:59;10.50;99.90
8214;DHT22;4148;47.974;7.824;2023-10-08T02:59:32;10.40;99.90
8214;DHT22;4148;47.974;7.824;2023-10-08T03:02:08;10.60;99.90
8214;DHT22;4148;47.974;7.824;2023-10-08T03:04:43;10.50;1.00
8214;DHT22;4148;47.974;7.824;2023-10-08T03:07:12;10.40;99.90
8214;DHT22;4148;47.974;7.824;2023-10-08T03:09:48;10.40;1.00
8214;DHT22;4148;47.974;7.824;2023-10-08T03:12:17;10.40;99.90
8214;DHT22;4148;47.974;7.824;2023-10-08T03:14:45;10.50;99.90
8214;DHT22;4148;47.974;7.824;2023-10-08T03:17:29;10.50;1.00
8214;DHT22;4148;47.974;7.824;2023-10-08T03:19:57;10.60;1.00
8214;DHT22;4148;47.974;7.824;2023-10-08T03:22:45;10.50;99.90
8214;DHT22;4148;47.974;7.824;2023-10-08T03:25:13;10.60;99.90
8214;DHT22;4148;47.974;7.824;2023-10-08T03:27:43;10.50;99.90
8214;DHT22;4148;47.974;7.824;2023-10-08T03:30:11;10.60;1.00
8214;DHT22;4148;47.974;7.824;2023-10-08T03:32:42;10.50;99.90
8214;DHT22;4148;47.974;7.824;2023-10-08T03:35:12;10.50;1.00
8214;DHT22;4148;47.974;7.824;2023-10-08T03:37:40;10.50;1.00
8214;DHT22;4148;47.974;7.824;2023-10-08T03:40:12;10.40;99.90
8214;DHT22;4148;47.974;7.824;2023-10-08T03:42:52;10.30;99.90
8214;DHT22;4148;47.974;7.824;2023-10-08T03:45:22;10.30;99.90
8214;DHT22;4148;47.974;7.824;2023-10-08T03:48:06;10.40;29.30
8214;DHT22;4148;47.974;7.824;2023-10-08T03:50:38;10.40;99.90
8214;DHT22;4148;47.974;7.824;2023-10-08T03:53:09;10.60;1.00
8214;DHT22;4148;47.974;7.824;2023-10-08T03:55:38;10.60;56.60
8214;DHT22;4148;47.974;7.824;2023-10-08T03:58:08;10.50;99.90
8214;DHT22;4148;47.974;7.824;2023-10-08T04:00:44;10.50;1.00
8214;DHT22;4148;47.974;7.824;2023-10-08T04:03:14;10.70;99.90
8214;DHT22;4148;47.974;7.824;2023-10-08T04:05:50;10.50;1.00
8214;DHT22;4148;47.974;7.824;2023-10-08T04:08:31;10.40;99.90
8214;DHT22;4148;47.974;7.824;2023-10-08T04:11:10;10.50;99.90
8214;DHT22;4148;47.974;7.824;2023-10-08T04:13:55;10.30;1.00
8214;DHT22;4148;47.974;7.824;2023-10-08T04:16:26;10.20;13.50
8214;DHT22;4148;47.974;7.824;2023-10-08T04:18:56;10.10;99.90
8214;DHT22;4148;47.974;7.824;2023-10-08T04:21:24;10.10;99.90
8214;DHT22;4148;47.974;7.824;2023-10-08T04:23:54;10.20;99.90
8214;DHT22;4148;47.974;7.824;2023-10-08T04:26:24;10.30;1.00
8214;DHT22;4148;47.974;7.824;2023-10-08T04:28:53;10.20;1.00
8214;DHT22;4148;47.974;7.824;2023-10-08T04:31:24;10.10;28.60
8214;DHT22;4148;47.974;7.824;2023-10-08T04:33:56;10.10;82.30
8214;DHT22;4148;47.974;7.824;2023-10-08T04:36:27;10.00;99.90
8214;DHT22;4148;47.974;7.824;2023-10-08T04:38:55;10.00;99.90
8214;DHT22;4148;47.974;7.824;2023-10-08T04:41:29;10.00;99.90
8214;DHT22;4148;47.974;7.824;2023-10-08T04:43:57;10.00;99.90
8214;DHT22;4148;47.974;7.824;2023-10-08T04:46:29;9.90;99.90
8214;DHT22;4148;47.974;7.824;2023-10-08T04:49:15;9.80;99.90
8214;DHT22;4148;47.974;7.824;2023-10-08T04:51:57;9.80;99.90
8214;DHT22;4148;47.974;7.824;2023-10-08T04:54:25;9.70;99.90
8214;DHT22;4148;47.974;7.824;2023-10-08T04:56:58;9.70;99.90
8214;DHT22;4148;47.974;7.824;2023-10-08T04:59:27;9.80;99.90
8214;DHT22;4148;47.974;7.824;2023-10-08T05:02:02;9.80;99.90
8214;DHT22;4148;47.974;7.824;2023-10-08T05:04:48;10.00;99.90
8214;DHT22;4148;47.974;7.824;2023-10-08T05:07:49;10.20;99.90
8214;DHT22;4148;47.974;7.824;2023-10-08T05:10:44;10.10;94.10
8214;DHT22;4148;47.974;7.824;2023-10-08T05:13:27;10.10;99.90
8214;DHT22;4148;47.974;7.824;2023-10-08T05:15:59;10.20;99.90
8214;DHT22;4148;47.974;7.824;2023-10-08T05:18:38;10.10;99.90
8214;DHT22;4148;47.974;7.824;2023-10-08T05:21:22;10.10;99.90
8214;DHT22;4148;47.974;7.824;2023-10-08T05:24:07;10.00;99.90
8214;DHT22;4148;47.974;7.824;2023-10-08T05:26:40;9.90;99.90
8214;DHT22;4148;47.974;7.824;2023-10-08T05:29:16;9.70;99.90
8214;DHT22;4148;47.974;7.824;2023-10-08T05:32:01;9.70;99.90
8214;DHT22;4148;47.974;7.824;2023-10-08T05:34:47;9.90;99.90
8214;DHT22;4148;47.974;7.824;2023-10-08T05:37:40;9.90;99.90
8214;DHT22;4148;47.974;7.824;2023-10-08T05:40:09;9.80;99.90
8214;DHT22;4148;47.974;7.824;2023-10-08T05:42:48;9.80;99.90
8214;DHT22;4148;47.974;7.824;2023-10-08T05:45:27;9.80;99.90
8214;DHT22;4148;47.974;7.824;2023-10-08T05:48:02;9.80;99.90
8214;DHT22;4148;47.974;7.824;2023-10-08T05:50:40;9.90;99.90
8214;DHT22;4148;47.974;7.824;2023-10-08T05:53:23;9.80;99.90
8214;DHT22;4148;47.974;7.824;2023-10-08T05:56:10;9.80;99.90
8214;DHT22;4148;47.974;7.824;2023-10-08T05:58:55;9.80;99.90
8214;DHT22;4148;47.974;7.824;2023-10-08T06:01:45;9.70;1.00
8214;DHT22;4148;47.974;7.824;2023-10-08T06:04:13;9.70;99.90
8214;DHT22;4148;47.974;7.824;2023-10-08T06:06:57;9.90;99.90
8214;DHT22;4148;47.974;7.824;2023-10-08T06:09:40;10.00;99.90
8214;DHT22;4148;47.974;7.824;2023-10-08T06:12:17;9.80;99.90
8214;DHT22;4148;47.974;7.824;2023-10-08T06:14:57;9.80;99.90
8214;DHT22;4148;47.974;7.824;2023-10-08T06:17:38;9.70;1.00
8214;DHT22;4148;47.974;7.824;2023-10-08T06:20:26;9.70;1.00
8214;DHT22;4148;47.974;7.824;2023-10-08T06:22:55;9.80;1.00
8214;DHT22;4148;47.974;7.824;2023-10-08T06:25:31;9.90;99.90
8214;DHT22;4148;47.974;7.824;2023-10-08T06:27:59;10.00;1.00
8214;DHT22;4148;47.974;7.824;2023-10-08T06:30:29;10.00;1.00
8214;DHT22;4148;47.974;7.824;2023-10-08T06:33:02;10.00;1.00
8214;DHT22;4148;47.974;7.824;2023-10-08T06:35:30;10.00;1.00
8214;DHT22;4148;47.974;7.824;2023-10-08T06:37:59;10.10;1.00
8214;DHT22;4148;47.974;7.824;2023-10-08T06:40:35;10.10;1.00
8214;DHT22;4148;47.974;7.824;2023-10-08T06:43:10;10.10;1.00
8214;DHT22;4148;47.974;7.824;2023-10-08T06:45:51;10.20;1.00
8214;DHT22;4148;47.974;7.824;2023-10-08T06:48:20;10.30;1.00
8214;DHT22;4148;47.974;7.824;2023-10-08T06:50:51;10.30;1.00
8214;DHT22;4148;47.974;7.824;2023-10-08T06:53:24;10.40;1.00
8214;DHT22;4148;47.974;7.824;2023-10-08T06:55:57;10.40;1.00
8214;DHT22;4148;47.974;7.824;2023-10-08T06:58:31;10.60;1.00
8214;DHT22;4148;47.974;7.824;2023-10-08T07:01:00;10.80;1.00
8214;DHT22;4148;47.974;7.824;2023-10-08T07:03:32;10.80;1.00
8214;DHT22;4148;47.974;7.824;2023-10-08T07:06:01;10.80;1.00
8214;DHT22;4148;47.974;7.824;2023-10-08T07:08:31;11.00;1.00
8214;DHT22;4148;47.974;7.824;2023-10-08T07:11:02;11.00;1.00
8214;DHT22;4148;47.974;7.824;2023-10-08T07:13:34;11.10;1.00
8214;DHT22;4148;47.974;7.824;2023-10-08T07:16:04;11.30;1.00
8214;DHT22;4148;47.974;7.824;2023-10-08T07:18:38;11.30;1.00
8214;DHT22;4148;47.974;7.824;2023-10-08T07:21:06;11.40;99.90
8214;DHT22;4148;47.974;7.824;2023-10-08T07:23:39;11.50;1.00
8214;DHT22;4148;47.974;7.824;2023-10-08T07:26:25;11.70;99.90
8214;DHT22;4148;47.974;7.824;2023-10-08T07:29:03;11.90;18.30
8214;DHT22;4148;47.974;7.824;2023-10-08T07:31:36;12.20;99.90
8214;DHT22;4148;47.974;7.824;2023-10-08T07:34:08;12.30;1.00
8214;DHT22;4148;47.974;7.824;2023-10-08T07:36:46;12.40;1.00
8214;DHT22;4148;47.974;7.824;2023-10-08T07:39:15;12.50;1.00
8214;DHT22;4148;47.974;7.824;2023-10-08T07:41:54;12.60;99.90
8214;DHT22;4148;47.974;7.824;2023-10-08T07:44:22;12.80;28.70
8214;DHT22;4148;47.974;7.824;2023-10-08T07:46:51;12.90;65.10
8214;DHT22;4148;47.974;7.824;2023-10-08T07:49:21;13.10;1.00
8214;DHT22;4148;47.974;7.824;2023-10-08T07:51:50;13.20;1.00
8214;DHT22;4148;47.974;7.824;2023-10-08T07:54:19;13.30;99.90
8214;DHT22;4148;47.974;7.824;2023-10-08T07:56:49;13.50;1.00
8214;DHT22;4148;47.974;7.824;2023-10-08T07:59:20;13.60;99.90
8214;DHT22;4148;47.974;7.824;2023-10-08T08:01:48;13.70;1.00
8214;DHT22;4148;47.974;7.824;2023-10-08T08:04:18;13.80;1.00
8214;DHT22;4148;47.974;7.824;2023-10-08T08:06:50;13.90;99.90
8214;DHT22;4148;47.974;7.824;2023-10-08T08:09:18;14.00;99.90
8214;DHT22;4148;47.974;7.824;2023-10-08T08:11:47;14.20;1.00
8214;DHT22;4148;47.974;7.824;2023-10-08T08:14:15;14.50;40.50
8214;DHT22;4148;47.974;7.824;2023-10-08T08:16:45;14.70;99.90
8214;DHT22;4148;47.974;7.824;2023-10-08T08:19:15;14.90;99.90
8214;DHT22;4148;47.974;7.824;2023-10-08T08:21:43;15.20;99.90
8214;DHT22;4148;47.974;7.824;2023-10-08T08:24:12;15.60;99.90
8214;DHT22;4148;47.974;7.824;2023-10-08T08:26:55;16.10;1.00
8214;DHT22;4148;47.974;7.824;2023-10-08T08:29:35;16.70;1.00
8214;DHT22;4148;47.974;7.824;2023-10-08T08:32:12;17.10;99.90
8214;DHT22;4148;47.974;7.824;2023-10-08T08:34:42;17.60;1.00
8214;DHT22;4148;47.974;7.824;2023-10-08T08:37:11;17.90;99.90
8214;DHT22;4148;47.974;7.824;2023-10-08T08:39:39;18.30;99.90
8214;DHT22;4148;47.974;7.824;2023-10-08T08:42:08;18.80;99.90
8214;DHT22;4148;47.974;7.824;2023-10-08T08:44:38;19.00;99.90
8214;DHT22;4148;47.974;7.824;2023-10-08T08:47:14;19.40;99.90
8214;DHT22;4148;47.974;7.824;2023-10-08T08:49:45;19.60;99.90
8214;DHT22;4148;47.974;7.824;2023-10-08T08:52:13;19.70;99.90
8214;DHT22;4148;47.974;7.824;2023-10-08T08:54:42;19.90;99.90
8214;DHT22;4148;47.974;7.824;2023-10-08T08:57:10;20.10;99.90
8214;DHT22;4148;47.974;7.824;2023-10-08T08:59:44;20.30;99.90
8214;DHT22;4148;47.974;7.824;2023-10-08T09:02:17;20.40;99.90
8214;DHT22;4148;47.974;7.824;2023-10-08T09:07:19;20.60;99.90
8214;DHT22;4148;47.974;7.824;2023-10-08T09:09:48;20.90;99.90
8214;DHT22;4148;47.974;7.824;2023-10-08T09:12:17;21.30;99.90
8214;DHT22;4148;47.974;7.824;2023-10-08T09:14:47;21.40;99.90
8214;DHT22;4148;47.974;7.824;2023-10-08T09:17:17;21.60;99.90
8214;DHT22;4148;47.974;7.824;2023-10-08T09:19:45;21.80;99.90
8214;DHT22;4148;47.974;7.824;2023-10-08T09:22:13;22.10;99.90
8214;DHT22;4148;47.974;7.824;2023-10-08T09:24:48;22.30;99.90
8214;DHT22;4148;47.974;7.824;2023-10-08T09:27:19;22.70;99.90
8214;DHT22;4148;47.974;7.824;2023-10-08T09:29:48;22.80;99.90
8214;DHT22;4148;47.974;7.824;2023-10-08T09:32:18;22.90;99.90
8214;DHT22;4148;47.974;7.824;2023-10-08T09:34:51;23.20;99.90
8214;DHT22;4148;47.974;7.824;2023-10-08T09:37:20;23.30;99.90
8214;DHT22;4148;47.974;7.824;2023-10-08T09:39:49;23.60;99.90
8214;DHT22;4148;47.974;7.824;2023-10-08T09:42:19;23.80;99.90
8214;DHT22;4148;47.974;7.824;2023-10-08T09:44:49;24.00;99.90
8214;DHT22;4148;47.974;7.824;2023-10-08T09:47:21;24.30;99.90
8214;DHT22;4148;47.974;7.824;2023-10-08T09:50:04;24.30;99.90
8214;DHT22;4148;47.974;7.824;2023-10-08T09:52:39;24.60;99.90
8214;DHT22;4148;47.974;7.824;2023-10-08T09:55:11;24.50;99.90
8214;DHT22;4148;47.974;7.824;2023-10-08T09:57:39;24.80;99.90
8214;DHT22;4148;47.974;7.824;2023-10-08T10:00:08;24.70;99.90
8214;DHT22;4148;47.974;7.824;2023-10-08T10:02:43;24.40;99.90
8214;DHT22;4148;47.974;7.824;2023-10-08T10:05:12;24.00;99.90
8214;DHT22;4148;47.974;7.824;2023-10-08T10:07:41;23.60;99.90
8214;DHT22;4148;47.974;7.824;2023-10-08T10:10:25;23.70;99.90
8214;DHT22;4148;47.974;7.824;2023-10-08T10:12:57;23.60;99.90
8214;DHT22;4148;47.974;7.824;2023-10-08T10:15:26;23.80;99.90
8214;DHT22;4148;47.974;7.824;2023-10-08T10:18:08;23.80;99.90
8214;DHT22;4148;47.974;7.824;2023-10-08T10:20:39;23.90;99.90
8214;DHT22;4148;47.974;7.824;2023-10-08T10:23:35;24.00;99.90
8214;DHT22;4148;47.974;7.824;2023-10-08T10:26:04;23.70;99.90
8214;DHT22;4148;47.974;7.824;2023-10-08T10:28:36;23.40;99.90
8214;DHT22;4148;47.974;7.824;2023-10-08T10:31:04;23.20;99.90
8214;DHT22;4148;47.974;7.824;2023-10-08T10:33:36;23.20;99.90
8214;DHT22;4148;47.974;7.824;2023-10-08T10:36:09;23.20;99.90
8214;DHT22;4148;47.974;7.824;2023-10-08T10:38:40;22.90;99.90
8214;DHT22;4148;47.974;7.824;2023-10-08T10:41:09;22.90;99.90
8214;DHT22;4148;47.974;7.824;2023-10-08T10:43:37;22.80;99.90
8214;DHT22;4148;47.974;7.824;2023-10-08T10:46:07;22.90;99.90
8214;DHT22;4148;47.974;7.824;2023-10-08T10:48:57;22.80;99.90
8214;DHT22;4148;47.974;7.824;2023-10-08T10:51:31;22.80;99.90
8214;DHT22;4148;47.974;7.824;2023-10-08T10:54:00;23.00;99.90
8214;DHT22;4148;47.974;7.824;2023-10-08T10:56:35;23.40;99.90
8214;DHT22;4148;47.974;7.824;2023-10-08T10:59:10;23.50;99.90
8214;DHT22;4148;47.974;7.824;2023-10-08T11:01:46;23.50;99.90
8214;DHT22;4148;47.974;7.824;2023-10-08T11:04:20;23.40;99.90
8214;DHT22;4148;47.974;7.824;2023-10-08T11:06:56;23.40;99.90
8214;DHT22;4148;47.974;7.824;2023-10-08T11:09:27;24.00;99.90
8214;DHT22;4148;47.974;7.824;2023-10-08T11:12:06;24.20;99.90
8214;DHT22;4148;47.974;7.824;2023-10-08T11:14:38;24.70;99.90
8214;DHT22;4148;47.974;7.824;2023-10-08T11:17:11;25.00;99.90
8214;DHT22;4148;47.974;7.824;2023-10-08T11:19:40;25.30;99.90
8214;DHT22;4148;47.974;7.824;2023-10-08T11:22:09;25.30;99.90
8214;DHT22;4148;47.974;7.824;2023-10-08T11:24:43;25.50;99.90
8214;DHT22;4148;47.974;7.824;2023-10-08T11:27:16;25.40;99.90
8214;DHT22;4148;47.974;7.824;2023-10-08T11:29:45;25.30;99.90
8214;DHT22;4148;47.974;7.824;2023-10-08T11:32:15;25.10;99.90
8214;DHT22;4148;47.974;7.824;2023-10-08T11:34:47;24.80;99.90
8214;DHT22;4148;47.974;7.824;2023-10-08T11:37:26;24.50;99.90
8214;DHT22;4148;47.974;7.824;2023-10-08T11:39:54;24.50;99.90
8214;DHT22;4148;47.974;7.824;2023-10-08T11:42:25;24.60;99.90
8214;DHT22;4148;47.974;7.824;2023-10-08T11:45:07;24.50;99.90
8214;DHT22;4148;47.974;7.824;2023-10-08T11:47:52;24.60;99.90
8214;DHT22;4148;47.974;7.824;2023-10-08T11:50:25;24.60;99.90
8214;DHT22;4148;47.974;7.824;2023-10-08T11:52:59;24.40;99.90
8214;DHT22;4148;47.974;7.824;2023-10-08T11:55:33;24.10;99.90
8214;DHT22;4148;47.974;7.824;2023-10-08T11:58:03;24.10;99.90
8214;DHT22;4148;47.974;7.824;2023-10-08T12:00:37;24.30;99.90
8214;DHT22;4148;47.974;7.824;2023-10-08T12:03:11;24.40;99.90
8214;DHT22;4148;47.974;7.824;2023-10-08T12:05:41;24.50;99.90
8214;DHT22;4148;47.974;7.824;2023-10-08T12:08:14;24.60;99.90
8214;DHT22;4148;47.974;7.824;2023-10-08T12:10:43;24.60;99.90
8214;DHT22;4148;47.974;7.824;2023-10-08T12:13:13;24.60;99.90
8214;DHT22;4148;47.974;7.824;2023-10-08T12:15:45;24.60;99.90
8214;DHT22;4148;47.974;7.824;2023-10-08T12:18:14;24.40;99.90
8214;DHT22;4148;47.974;7.824;2023-10-08T12:20:53;24.30;99.90
8214;DHT22;4148;47.974;7.824;2023-10-08T12:23:22;24.40;99.90
8214;DHT22;4148;47.974;7.824;2023-10-08T12:25:52;24.40;99.90
8214;DHT22;4148;47.974;7.824;2023-10-08T12:28:22;24.50;99.90
8214;DHT22;4148;47.974;7.824;2023-10-08T12:30:51;24.50;99.90
8214;DHT22;4148;47.974;7.824;2023-10-08T12:33:20;24.40;99.90
8214;DHT22;4148;47.974;7.824;2023-10-08T12:35:52;24.40;99.90
8214;DHT22;4148;47.974;7.824;2023-10-08T12:38:22;24.30;99.90
8214;DHT22;4148;47.974;7.824;2023-10-08T12:40:51;24.10;99.90
8214;DHT22;4148;47.974;7.824;2023-10-08T12:43:20;24.00;99.90
8214;DHT22;4148;47.974;7.824;2023-10-08T12:45:49;23.90;99.90
8214;DHT22;4148;47.974;7.824;2023-10-08T12:48:20;23.80;99.90
8214;DHT22;4148;47.974;7.824;2023-10-08T12:50:48;23.80;99.90
8214;DHT22;4148;47.974;7.824;2023-10-08T12:53:26;23.90;99.90
8214;DHT22;4148;47.974;7.824;2023-10-08T12:56:01;24.00;99.90
8214;DHT22;4148;47.974;7.824;2023-10-08T12:58:34;24.00;99.90
8214;DHT22;4148;47.974;7.824;2023-10-08T13:01:08;24.10;99.90
8214;DHT22;4148;47.974;7.824;2023-10-08T13:03:37;24.00;99.90
8214;DHT22;4148;47.974;7.824;2023-10-08T13:06:09;24.10;99.90
8214;DHT22;4148;47.974;7.824;2023-10-08T13:08:43;24.10;99.90
8214;DHT22;4148;47.974;7.824;2023-10-08T13:11:11;24.10;99.90
8214;DHT22;4148;47.974;7.824;2023-10-08T13:13:39;24.20;99.90
8214;DHT22;4148;47.974;7.824;2023-10-08T13:16:08;24.20;99.90
8214;DHT22;4148;47.974;7.824;2023-10-08T13:18:36;24.30;99.90
8214;DHT22;4148;47.974;7.824;2023-10-08T13:21:04;24.30;99.90
8214;DHT22;4148;47.974;7.824;2023-10-08T13:23:33;24.30;99.90
8214;DHT22;4148;47.974;7.824;2023-10-08T13:26:03;24.20;99.90
8214;DHT22;4148;47.974;7.824;2023-10-08T13:28:34;24.10;99.90
8214;DHT22;4148;47.974;7.824;2023-10-08T13:31:03;24.10;99.90
8214;DHT22;4148;47.974;7.824;2023-10-08T13:33:37;24.10;99.90
8214;DHT22;4148;47.974;7.824;2023-10-08T13:36:07;24.10;99.90
8214;DHT22;4148;47.974;7.824;2023-10-08T13:38:45;24.10;99.90
8214;DHT22;4148;47.974;7.824;2023-10-08T13:41:16;24.10;99.90
8214;DHT22;4148;47.974;7.824;2023-10-08T13:43:45;24.10;99.90
8214;DHT22;4148;47.974;7.824;2023-10-08T13:46:15;24.10;99.90
8214;DHT22;4148;47.974;7.824;2023-10-08T13:48:46;24.10;99.90
8214;DHT22;4148;47.974;7.824;2023-10-08T13:51:17;24.20;99.90
8214;DHT22;4148;47.974;7.824;2023-10-08T13:53:51;24.10;99.90
8214;DHT22;4148;47.974;7.824;2023-10-08T13:56:22;24.00;99.90
8214;DHT22;4148;47.974;7.824;2023-10-08T13:58:54;24.00;99.90
8214;DHT22;4148;47.974;7.824;2023-10-08T14:01:31;24.00;99.90
8214;DHT22;4148;47.974;7.824;2023-10-08T14:04:01;23.90;99.90
8214;DHT22;4148;47.974;7.824;2023-10-08T14:06:33;23.80;99.90
8214;DHT22;4148;47.974;7.824;2023-10-08T14:09:03;23.80;99.90
8214;DHT22;4148;47.974;7.824;2023-10-08T14:11:35;23.70;99.90
8214;DHT22;4148;47.974;7.824;2023-10-08T14:14:03;23.60;99.90
8214;DHT22;4148;47.974;7.824;2023-10-08T14:16:39;23.50;99.90
8214;DHT22;4148;47.974;7.824;2023-10-08T14:19:09;23.40;99.90
8214;DHT22;4148;47.974;7.824;2023-10-08T14:21:39;23.30;99.90
8214;DHT22;4148;47.974;7.824;2023-10-08T14:24:16;23.30;99.90
8214;DHT22;4148;47.974;7.824;2023-10-08T14:26:46;23.20;99.90
8214;DHT22;4148;47.974;7.824;2023-10-08T14:29:21;23.20;99.90
8214;DHT22;4148;47.974;7.824;2023-10-08T14:31:52;23.20;99.90
8214;DHT22;4148;47.974;7.824;2023-10-08T14:34:23;23.20;99.90
8214;DHT22;4148;47.974;7.824;2023-10-08T14:37:17;23.20;99.90
8214;DHT22;4148;47.974;7.824;2023-10-08T14:40:02;23.10;99.90
8214;DHT22;4148;47.974;7.824;2023-10-08T14:42:49;22.90;99.90
8214;DHT22;4148;47.974;7.824;2023-10-08T14:45:30;22.80;99.90
8214;DHT22;4148;47.974;7.824;2023-10-08T14:48:00;22.80;99.90
8214;DHT22;4148;47.974;7.824;2023-10-08T14:50:28;22.70;99.90
8214;DHT22;4148;47.974;7.824;2023-10-08T14:53:00;22.60;99.90
8214;DHT22;4148;47.974;7.824;2023-10-08T14:55:31;22.50;99.90
8214;DHT22;4148;47.974;7.824;2023-10-08T14:58:03;22.50;99.90
8214;DHT22;4148;47.974;7.824;2023-10-08T15:00:35;22.50;99.90
8214;DHT22;4148;47.974;7.824;2023-10-08T15:03:04;22.40;99.90
8214;DHT22;4148;47.974;7.824;2023-10-08T15:05:33;22.30;99.90
8214;DHT22;4148;47.974;7.824;2023-10-08T15:08:04;22.30;99.90
8214;DHT22;4148;47.974;7.824;2023-10-08T15:10:37;22.30;99.90
8214;DHT22;4148;47.974;7.824;2023-10-08T15:15:35;22.20;99.90
8214;DHT22;4148;47.974;7.824;2023-10-08T15:18:03;22.10;99.90
8214;DHT22;4148;47.974;7.824;2023-10-08T15:20:33;22.10;99.90
8214;DHT22;4148;47.974;7.824;2023-10-08T15:23:02;22.10;99.90
8214;DHT22;4148;47.974;7.824;2023-10-08T15:25:30;22.00;99.90
8214;DHT22;4148;47.974;7.824;2023-10-08T15:27:57;22.00;99.90
8214;DHT22;4148;47.974;7.824;2023-10-08T15:30:27;22.00;99.90
8214;DHT22;4148;47.974;7.824;2023-10-08T15:32:56;21.90;99.90
8214;DHT22;4148;47.974;7.824;2023-10-08T15:35:24;21.80;99.90
8214;DHT22;4148;47.974;7.824;2023-10-08T15:37:53;21.80;99.90
8214;DHT22;4148;47.974;7.824;2023-10-08T15:40:22;21.70;99.90
8214;DHT22;4148;47.974;7.824;2023-10-08T15:42:52;21.60;99.90
8214;DHT22;4148;47.974;7.824;2023-10-08T15:45:23;21.50;99.90
8214;DHT22;4148;47.974;7.824;2023-10-08T15:47:53;21.40;99.90
8214;DHT22;4148;47.974;7.824;2023-10-08T15:50:22;21.40;99.90
8214;DHT22;4148;47.974;7.824;2023-10-08T15:52:52;21.50;99.90
8214;DHT22;4148;47.974;7.824;2023-10-08T15:55:22;21.50;99.90
8214;DHT22;4148;47.974;7.824;2023-10-08T15:57:52;21.50;99.90
8214;DHT22;4148;47.974;7.824;2023-10-08T16:00:20;21.40;99.90
8214;DHT22;4148;47.974;7.824;2023-10-08T16:02:48;21.40;99.90
8214;DHT22;4148;47.974;7.824;2023-10-08T16:05:17;21.30;99.90
8214;DHT22;4148;47.974;7.824;2023-10-08T16:07:45;21.20;99.90
8214;DHT22;4148;47.974;7.824;2023-10-08T16:10:13;21.20;99.90
8214;DHT22;4148;47.974;7.824;2023-10-08T16:12:42;21.30;99.90
8214;DHT22;4148;47.974;7.824;2023-10-08T16:15:10;21.40;99.90
8214;DHT22;4148;47.974;7.824;2023-10-08T16:17:38;21.50;99.90
8214;DHT22;4148;47.974;7.824;2023-10-08T16:20:08;21.40;99.90
8214;DHT22;4148;47.974;7.824;2023-10-08T16:22:45;21.50;99.90
8214;DHT22;4148;47.974;7.824;2023-10-08T16:25:14;21.40;99.90
8214;DHT22;4148;47.974;7.824;2023-10-08T16:27:44;21.40;99.90
8214;DHT22;4148;47.974;7.824;2023-10-08T16:30:16;21.40;99.90
8214;DHT22;4148;47.974;7.824;2023-10-08T16:32:46;21.30;99.90
8214;DHT22;4148;47.974;7.824;2023-10-08T16:35:15;21.30;99.90
8214;DHT22;4148;47.974;7.824;2023-10-08T16:37:45;21.20;99.90
8214;DHT22;4148;47.974;7.824;2023-10-08T16:40:13;21.20;99.90
8214;DHT22;4148;47.974;7.824;2023-10-08T16:42:41;21.10;99.90